Time;durP1;ratioP1;P1;durP2;ratioP2;P2;SDS_P1;SDS_P2;PMS_P1;PMS_P2;Temp;Humidity;BMP_temperature;BMP_pressure;BME280_temperature;BME280_humidity;BME280_pressure;Samples;Min_cycle;Max_cycle;Signal;HPM_P1;HPM_P2
2023/01/06 00:00:29;;;;;;;7.32;3.63;;;;;;;;;;5008855;28;20080;-69
2023/01/06 00:02:55;;;;;;;4.65;2.75;;;;;;;;;;4990320;28;20026;-69
2023/01/06 00:05:20;;;;;;;4.93;2.55;;;;;;;;;;4981817;28;20084;-69
2023/01/06 00:07:50;;;;;;;4.57;2.92;;;;;;;;;;4987306;28;20066;-70
2023/01/06 00:10:15;;;;;;;4.18;2.30;;;;;;;;;;4984799;28;20487;-69
2023/01/06 00:12:44;;;;;;;5.40;3.30;;;;;;;;;;4986774;28;20034;-68
2023/01/06 00:15:09;;;;;;;11.32;4.57;;;;;;;;;;4983852;28;20391;-69
2023/01/06 00:17:35;;;;;;;7.50;3.67;;;;;;;;;;4989029;28;20026;-70
2023/01/06 00:20:00;;;;;;;4.78;2.60;;;;;;;;;;4982292;28;20099;-69
2023/01/06 00:22:26;;;;;;;6.50;2.65;;;;;;;;;;5003544;28;20034;-68
2023/01/06 00:24:51;;;;;;;5.13;2.47;;;;;;;;;;5005995;28;20030;-69
2023/01/06 00:27:16;;;;;;;4.15;2.60;;;;;;;;;;5008783;28;20176;-69
2023/01/06 00:29:42;;;;;;;5.05;2.38;;;;;;;;;;5009077;28;20049;-69
2023/01/06 00:32:07;;;;;;;8.43;2.50;;;;;;;;;;4999687;28;20407;-69
2023/01/06 00:34:33;;;;;;;5.40;2.67;;;;;;;;;;4981051;28;20043;-70
2023/01/06 00:36:58;;;;;;;5.78;3.10;;;;;;;;;;5003730;28;20029;-70
2023/01/06 00:39:23;;;;;;;7.20;3.35;;;;;;;;;;5002002;28;20100;-69
2023/01/06 00:42:04;;;;;;;4.72;2.70;;;;;;;;;;4995522;28;20022;-69
2023/01/06 00:44:33;;;;;;;5.20;2.95;;;;;;;;;;4994807;28;20086;-69
2023/01/06 00:46:59;;;;;;;31.90;10.88;;;;;;;;;;4994738;28;20037;-69
2023/01/06 00:49:24;;;;;;;5.60;3.00;;;;;;;;;;4994250;28;20026;-70
2023/01/06 00:51:50;;;;;;;6.72;3.33;;;;;;;;;;4989566;28;20475;-69
2023/01/06 00:54:16;;;;;;;5.60;2.80;;;;;;;;;;4986256;28;20034;-69
2023/01/06 00:56:44;;;;;;;5.22;2.92;;;;;;;;;;4987923;28;20026;-69
2023/01/06 00:59:13;;;;;;;4.82;2.65;;;;;;;;;;4985562;28;20038;-69
2023/01/06 01:01:39;;;;;;;4.00;2.83;;;;;;;;;;4988017;28;20168;-69
2023/01/06 01:04:05;;;;;;;5.30;2.90;;;;;;;;;;4985829;28;20438;-70
2023/01/06 01:06:30;;;;;;;6.50;2.88;;;;;;;;;;4987367;28;20023;-69
2023/01/06 01:08:58;;;;;;;4.47;2.70;;;;;;;;;;4986091;28;20361;-68
2023/01/06 01:14:10;;;;;;;4.88;2.95;;;;;;;;;;5005546;28;20167;-68
2023/01/06 01:16:35;;;;;;;5.13;2.60;;;;;;;;;;5004138;28;20490;-69
2023/01/06 01:19:01;;;;;;;5.95;2.42;;;;;;;;;;4985189;28;20114;-69
2023/01/06 01:21:27;;;;;;;4.68;2.88;;;;;;;;;;4984427;28;20486;-69
2023/01/06 01:23:52;;;;;;;5.05;2.78;;;;;;;;;;4986297;28;20069;-69
2023/01/06 01:26:18;;;;;;;6.93;3.40;;;;;;;;;;4982893;28;20386;-69
2023/01/06 01:28:44;;;;;;;9.30;4.22;;;;;;;;;;4987415;28;20035;-69
2023/01/06 01:31:09;;;;;;;9.88;5.35;;;;;;;;;;4981423;28;20026;-69
2023/01/06 01:33:36;;;;;;;9.73;5.28;;;;;;;;;;4988566;28;20051;-68
2023/01/06 01:36:10;;;;;;;9.10;5.13;;;;;;;;;;4980358;28;20069;-69
2023/01/06 01:38:35;;;;;;;8.27;4.32;;;;;;;;;;4988491;28;20038;-69
2023/01/06 01:41:01;;;;;;;6.80;3.45;;;;;;;;;;4980178;28;20026;-70
2023/01/06 01:43:46;;;;;;;11.65;5.28;;;;;;;;;;4989309;28;20109;-68
2023/01/06 01:46:15;;;;;;;36.58;11.70;;;;;;;;;;4981492;28;20042;-69
2023/01/06 01:48:41;;;;;;;16.42;7.20;;;;;;;;;;4987758;28;20035;-69
2023/01/06 01:51:10;;;;;;;26.08;9.70;;;;;;;;;;4986358;28;20026;-69
2023/01/06 01:53:39;;;;;;;28.92;10.20;;;;;;;;;;5007984;28;20575;-69
2023/01/06 01:56:09;;;;;;;28.83;10.48;;;;;;;;;;4988302;28;20073;-69
2023/01/06 01:58:52;;;;;;;29.90;11.77;;;;;;;;;;4980077;28;20030;-69
2023/01/06 02:01:17;;;;;;;24.92;10.55;;;;;;;;;;4986021;28;20097;-68
2023/01/06 02:03:43;;;;;;;42.45;13.82;;;;;;;;;;4981532;28;20475;-68
2023/01/06 02:06:17;;;;;;;35.92;12.35;;;;;;;;;;4987883;28;20040;-69
2023/01/06 02:08:54;;;;;;;28.08;10.45;;;;;;;;;;4980762;28;20035;-69
2023/01/06 02:11:21;;;;;;;24.23;8.95;;;;;;;;;;4986273;28;20062;-68
2023/01/06 02:13:50;;;;;;;15.95;7.13;;;;;;;;;;4981282;28;20015;-68
2023/01/06 02:16:22;;;;;;;16.52;7.35;;;;;;;;;;4987006;28;20047;-69
2023/01/06 02:19:08;;;;;;;9.50;4.57;;;;;;;;;;4981478;28;20036;-69
2023/01/06 02:21:50;;;;;;;9.85;5.25;;;;;;;;;;4984843;28;20121;-69
2023/01/06 02:24:33;;;;;;;11.98;6.55;;;;;;;;;;4985064;28;20030;-69
2023/01/06 02:27:04;;;;;;;15.20;7.18;;;;;;;;;;4981080;28;20041;-69
2023/01/06 02:30:17;;;;;;;10.95;5.55;;;;;;;;;;4999317;28;20033;-69
2023/01/06 02:33:03;;;;;;;11.73;5.68;;;;;;;;;;4972827;28;20047;-69
2023/01/06 02:35:38;;;;;;;9.95;4.22;;;;;;;;;;4952343;28;20047;-69
2023/01/06 02:38:09;;;;;;;8.63;4.55;;;;;;;;;;4971838;28;20455;-69
2023/01/06 02:40:46;;;;;;;7.45;3.92;;;;;;;;;;4971626;28;20341;-69
2023/01/06 02:43:40;;;;;;;9.25;4.47;;;;;;;;;;4972014;28;20034;-69
2023/01/06 02:46:20;;;;;;;9.07;3.78;;;;;;;;;;4972111;28;20062;-70
2023/01/06 02:49:07;;;;;;;6.68;4.07;;;;;;;;;;4971733;28;20481;-70
2023/01/06 02:51:58;;;;;;;6.55;3.42;;;;;;;;;;4971916;28;20045;-68
2023/01/06 02:54:26;;;;;;;6.90;2.92;;;;;;;;;;4967215;28;20039;-69
2023/01/06 02:57:14;;;;;;;7.90;3.47;;;;;;;;;;4971765;28;20043;-69
2023/01/06 02:59:49;;;;;;;7.90;3.75;;;;;;;;;;4971717;28;20134;-69
2023/01/06 03:02:17;;;;;;;5.38;3.50;;;;;;;;;;4971807;28;20130;-69
2023/01/06 03:04:45;;;;;;;5.40;3.13;;;;;;;;;;4971555;28;20054;-69
2023/01/06 03:07:14;;;;;;;6.65;3.28;;;;;;;;;;4985129;28;20081;-69
2023/01/06 03:09:39;;;;;;;5.65;3.40;;;;;;;;;;4996009;28;20038;-69
2023/01/06 03:12:14;;;;;;;5.13;3.25;;;;;;;;;;4980974;28;20439;-70
2023/01/06 03:14:45;;;;;;;5.93;3.15;;;;;;;;;;4990892;28;20443;-68
2023/01/06 03:17:11;;;;;;;6.15;3.60;;;;;;;;;;4983625;28;20057;-69
2023/01/06 03:19:37;;;;;;;5.68;3.53;;;;;;;;;;4990288;28;20467;-69
2023/01/06 03:22:03;;;;;;;8.15;4.30;;;;;;;;;;4984764;28;20477;-69
2023/01/06 03:24:29;;;;;;;6.80;4.38;;;;;;;;;;4988937;28;20081;-69
2023/01/06 03:26:55;;;;;;;8.40;4.35;;;;;;;;;;4985742;28;20026;-69
2023/01/06 03:29:21;;;;;;;11.65;4.60;;;;;;;;;;4987744;28;20061;-69
2023/01/06 03:31:56;;;;;;;7.07;4.45;;;;;;;;;;4986545;28;20047;-69
2023/01/06 03:34:27;;;;;;;9.02;5.30;;;;;;;;;;4987940;28;20034;-69
2023/01/06 03:37:10;;;;;;;9.88;4.28;;;;;;;;;;4986025;28;20027;-69
2023/01/06 03:39:44;;;;;;;10.20;4.90;;;;;;;;;;4989478;28;20051;-69
2023/01/06 03:45:34;;;;;;;8.27;4.43;;;;;;;;;;5013130;28;20100;-69
2023/01/06 03:48:04;;;;;;;9.27;4.65;;;;;;;;;;4976905;28;20046;-69
2023/01/06 03:50:37;;;;;;;9.82;4.80;;;;;;;;;;4977240;28;20392;-69
2023/01/06 03:53:18;;;;;;;13.93;5.60;;;;;;;;;;4977006;28;20063;-69
2023/01/06 03:55:49;;;;;;;23.50;8.68;;;;;;;;;;4978057;28;20031;-68
2023/01/06 03:58:17;;;;;;;11.68;4.88;;;;;;;;;;4995086;28;20025;-69
2023/01/06 04:00:43;;;;;;;13.50;5.85;;;;;;;;;;4977737;28;20476;-69
2023/01/06 04:03:12;;;;;;;11.80;6.03;;;;;;;;;;4995873;28;20085;-69
2023/01/06 04:05:38;;;;;;;13.63;4.70;;;;;;;;;;4976702;28;20023;-69
2023/01/06 04:08:03;;;;;;;10.23;5.82;;;;;;;;;;4996054;28;20129;-69
2023/01/06 04:10:29;;;;;;;10.35;5.50;;;;;;;;;;4976944;28;20039;-68
2023/01/06 04:12:54;;;;;;;9.40;4.32;;;;;;;;;;4995014;28;20112;-69
2023/01/06 04:15:22;;;;;;;9.95;5.10;;;;;;;;;;4978165;28;20403;-69
2023/01/06 04:17:48;;;;;;;12.45;5.72;;;;;;;;;;4993929;28;20117;-69
2023/01/06 04:20:28;;;;;;;12.77;5.82;;;;;;;;;;4977723;28;20034;-68
2023/01/06 04:22:55;;;;;;;14.13;5.43;;;;;;;;;;5012825;28;20026;-69
2023/01/06 04:25:21;;;;;;;12.13;5.63;;;;;;;;;;4996596;28;20030;-69
2023/01/06 04:27:47;;;;;;;11.73;5.72;;;;;;;;;;4978439;28;20105;-69
2023/01/06 04:30:13;;;;;;;10.07;5.45;;;;;;;;;;4992988;28;20480;-69
2023/01/06 04:32:38;;;;;;;8.27;4.03;;;;;;;;;;4979541;28;20054;-69
2023/01/06 04:35:04;;;;;;;13.40;5.97;;;;;;;;;;4991836;28;20084;-69
2023/01/06 04:37:29;;;;;;;10.52;5.25;;;;;;;;;;4980601;28;20043;-69
2023/01/06 04:39:55;;;;;;;10.65;5.70;;;;;;;;;;4990207;28;20372;-69
2023/01/06 04:42:20;;;;;;;10.30;5.30;;;;;;;;;;4982044;28;20027;-69
2023/01/06 04:44:46;;;;;;;9.43;4.55;;;;;;;;;;4988889;28;20038;-69
2023/01/06 04:47:11;;;;;;;10.13;5.22;;;;;;;;;;4983018;28;20031;-69
2023/01/06 04:49:37;;;;;;;12.20;5.35;;;;;;;;;;4987444;28;20099;-69
2023/01/06 04:52:02;;;;;;;10.63;4.53;;;;;;;;;;4983022;28;20023;-69
2023/01/06 04:54:28;;;;;;;12.57;6.05;;;;;;;;;;4985940;28;20061;-69
2023/01/06 04:56:53;;;;;;;8.05;4.53;;;;;;;;;;4995196;28;20030;-68
2023/01/06 04:59:19;;;;;;;8.60;3.55;;;;;;;;;;5004044;28;20038;-68
2023/01/06 05:01:44;;;;;;;3.97;2.45;;;;;;;;;;5006275;28;20082;-69
2023/01/06 05:04:10;;;;;;;4.90;2.17;;;;;;;;;;4987462;28;20026;-68
2023/01/06 05:06:35;;;;;;;8.00;4.03;;;;;;;;;;4982400;28;20100;-69
2023/01/06 05:09:01;;;;;;;6.63;2.60;;;;;;;;;;4988487;28;20481;-69
2023/01/06 05:11:27;;;;;;;5.07;3.08;;;;;;;;;;4981385;28;20599;-69
2023/01/06 05:13:53;;;;;;;10.13;4.03;;;;;;;;;;4989552;28;20163;-69
2023/01/06 05:16:24;;;;;;;5.82;3.42;;;;;;;;;;4979906;28;20034;-68
2023/01/06 05:18:51;;;;;;;3.40;2.17;;;;;;;;;;4989663;28;20030;-69
2023/01/06 05:21:16;;;;;;;5.60;3.65;;;;;;;;;;4979630;28;20027;-69
2023/01/06 05:23:42;;;;;;;2.42;1.75;;;;;;;;;;4990931;28;20039;-68
2023/01/06 05:26:12;;;;;;;6.28;3.42;;;;;;;;;;4978391;28;20077;-69
2023/01/06 05:28:38;;;;;;;4.93;3.03;;;;;;;;;;4991373;28;20507;-69
2023/01/06 05:31:04;;;;;;;6.07;2.95;;;;;;;;;;4977681;28;20038;-69
2023/01/06 05:33:32;;;;;;;5.13;3.05;;;;;;;;;;4992195;28;20050;-69
2023/01/06 05:36:05;;;;;;;8.10;2.83;;;;;;;;;;4978335;28;20031;-70
2023/01/06 05:38:31;;;;;;;5.30;3.05;;;;;;;;;;5011842;28;20044;-68
2023/01/06 05:40:57;;;;;;;4.30;2.88;;;;;;;;;;4992958;28;20113;-68
2023/01/06 05:43:24;;;;;;;9.07;2.97;;;;;;;;;;4975736;28;20026;-69
2023/01/06 05:45:50;;;;;;;5.93;3.30;;;;;;;;;;4993796;28;20046;-69
2023/01/06 05:48:15;;;;;;;5.13;2.90;;;;;;;;;;4974745;28;20038;-69
2023/01/06 05:50:40;;;;;;;5.32;2.90;;;;;;;;;;4994012;28;20034;-69
2023/01/06 05:53:06;;;;;;;7.97;3.30;;;;;;;;;;4975423;28;20026;-69
2023/01/06 05:55:31;;;;;;;6.72;3.40;;;;;;;;;;4992708;28;20037;-70
2023/01/06 05:57:57;;;;;;;4.85;3.42;;;;;;;;;;4976907;28;20118;-69
2023/01/06 06:00:22;;;;;;;7.30;3.50;;;;;;;;;;4991331;28;20463;-69
2023/01/06 06:02:48;;;;;;;5.07;3.17;;;;;;;;;;4977793;28;20034;-69
2023/01/06 06:05:13;;;;;;;4.20;2.90;;;;;;;;;;4989858;28;20018;-69
2023/01/06 06:07:39;;;;;;;5.38;3.40;;;;;;;;;;4979016;28;20538;-69
2023/01/06 06:10:05;;;;;;;4.95;2.85;;;;;;;;;;4988487;28;20114;-69
2023/01/06 06:12:30;;;;;;;3.25;2.20;;;;;;;;;;4980237;28;20027;-69
2023/01/06 06:14:55;;;;;;;4.38;2.60;;;;;;;;;;5000392;28;20026;-69
2023/01/06 06:17:21;;;;;;;4.68;2.90;;;;;;;;;;5000860;28;20033;-69
2023/01/06 06:19:46;;;;;;;5.03;2.70;;;;;;;;;;4982064;28;20038;-69
2023/01/06 06:22:12;;;;;;;5.55;3.05;;;;;;;;;;4985380;28;20029;-69
2023/01/06 06:24:37;;;;;;;5.57;3.00;;;;;;;;;;4983597;28;20097;-69
2023/01/06 06:27:03;;;;;;;4.53;2.13;;;;;;;;;;4984028;28;20542;-69
2023/01/06 06:29:28;;;;;;;2.80;1.75;;;;;;;;;;4984489;28;20131;-68
2023/01/06 06:31:54;;;;;;;4.95;2.33;;;;;;;;;;4982135;28;20050;-68
2023/01/06 06:34:19;;;;;;;3.85;2.08;;;;;;;;;;4985769;28;20035;-69
2023/01/06 06:36:45;;;;;;;3.10;1.90;;;;;;;;;;4980977;28;20034;-68
2023/01/06 06:39:10;;;;;;;4.43;2.50;;;;;;;;;;4982812;28;20054;-69
2023/01/06 06:41:36;;;;;;;3.72;2.70;;;;;;;;;;4983830;28;20037;-69
2023/01/06 06:44:02;;;;;;;3.85;2.53;;;;;;;;;;4983953;28;20429;-69
2023/01/06 06:46:28;;;;;;;4.88;2.60;;;;;;;;;;4982494;28;20031;-68
2023/01/06 06:48:54;;;;;;;5.63;3.17;;;;;;;;;;4984852;28;20105;-69
2023/01/06 06:51:21;;;;;;;3.72;2.28;;;;;;;;;;4981472;28;20031;-68
2023/01/06 06:53:47;;;;;;;4.15;2.47;;;;;;;;;;5000562;28;20034;-68
2023/01/06 06:56:14;;;;;;;3.33;2.10;;;;;;;;;;5006338;28;20030;-69
2023/01/06 06:58:39;;;;;;;5.15;2.85;;;;;;;;;;4987067;28;20058;-69
2023/01/06 07:01:09;;;;;;;7.43;3.08;;;;;;;;;;4979051;28;20365;-68
2023/01/06 07:03:34;;;;;;;8.55;2.97;;;;;;;;;;4987915;28;20050;-69
2023/01/06 07:06:02;;;;;;;4.70;2.13;;;;;;;;;;4978644;28;20034;-69
2023/01/06 07:08:28;;;;;;;3.53;2.40;;;;;;;;;;4988835;28;20506;-68
2023/01/06 07:10:53;;;;;;;4.28;2.17;;;;;;;;;;4977586;28;20483;-69
2023/01/06 07:13:18;;;;;;;2.83;1.88;;;;;;;;;;4990038;28;20046;-69
2023/01/06 07:15:44;;;;;;;5.05;3.03;;;;;;;;;;4975961;28;20432;-69
2023/01/06 07:18:09;;;;;;;3.08;1.80;;;;;;;;;;4990970;28;20029;-68
2023/01/06 07:20:36;;;;;;;5.38;2.67;;;;;;;;;;4974773;28;20027;-68
2023/01/06 07:23:02;;;;;;;6.82;3.70;;;;;;;;;;4992389;28;20049;-69
2023/01/06 07:25:28;;;;;;;7.85;3.05;;;;;;;;;;4973732;28;20384;-69
2023/01/06 07:27:55;;;;;;;6.50;3.38;;;;;;;;;;4993057;28;20026;-69
2023/01/06 07:30:21;;;;;;;5.35;2.92;;;;;;;;;;4973509;28;20039;-69
2023/01/06 07:32:47;;;;;;;5.90;2.42;;;;;;;;;;5010935;28;20042;-69
2023/01/06 07:35:12;;;;;;;5.95;3.22;;;;;;;;;;4994308;28;20458;-69
2023/01/06 07:37:38;;;;;;;5.30;2.75;;;;;;;;;;4973870;28;20031;-69
2023/01/06 07:40:03;;;;;;;5.20;2.67;;;;;;;;;;4989849;28;20026;-69
2023/01/06 07:42:29;;;;;;;7.03;2.95;;;;;;;;;;4976654;28;20125;-68
2023/01/06 07:44:54;;;;;;;7.35;3.15;;;;;;;;;;4988610;28;20038;-69
2023/01/06 07:47:20;;;;;;;5.95;3.00;;;;;;;;;;4977696;28;20030;-69
2023/01/06 07:49:45;;;;;;;3.03;1.95;;;;;;;;;;4987478;28;20030;-69
2023/01/06 07:52:10;;;;;;;6.65;3.03;;;;;;;;;;4979148;28;20033;-69
2023/01/06 07:54:36;;;;;;;5.57;2.85;;;;;;;;;;4986082;28;20026;-69
2023/01/06 07:57:01;;;;;;;3.53;2.53;;;;;;;;;;4980496;28;20029;-68
2023/01/06 07:59:27;;;;;;;6.13;3.30;;;;;;;;;;4985549;28;20097;-69
2023/01/06 08:01:52;;;;;;;6.13;3.25;;;;;;;;;;4985020;28;20042;-69
2023/01/06 08:04:17;;;;;;;5.97;3.22;;;;;;;;;;4987011;28;20038;-69
2023/01/06 08:06:43;;;;;;;3.70;2.20;;;;;;;;;;4986302;28;20026;-69
2023/01/06 08:09:08;;;;;;;9.77;4.20;;;;;;;;;;4994800;28;20395;-69
2023/01/06 08:11:34;;;;;;;6.00;3.58;;;;;;;;;;5007338;28;20030;-69
2023/01/06 08:13:59;;;;;;;7.22;3.30;;;;;;;;;;4987933;28;20047;-70
2023/01/06 08:16:24;;;;;;;6.78;3.90;;;;;;;;;;4983766;28;20050;-69
2023/01/06 08:18:50;;;;;;;5.47;3.33;;;;;;;;;;4989461;28;20464;-69
2023/01/06 08:21:15;;;;;;;7.78;3.42;;;;;;;;;;4982127;28;20495;-69
2023/01/06 08:23:41;;;;;;;4.53;3.03;;;;;;;;;;4990774;28;20029;-69
2023/01/06 08:26:09;;;;;;;6.25;3.30;;;;;;;;;;4980769;28;20034;-69
2023/01/06 08:28:35;;;;;;;4.07;2.63;;;;;;;;;;4991256;28;20122;-69
2023/01/06 08:31:01;;;;;;;6.07;3.25;;;;;;;;;;4980077;28;20138;-68
2023/01/06 08:33:27;;;;;;;5.90;2.75;;;;;;;;;;4992377;28;20125;-69
2023/01/06 08:36:01;;;;;;;7.57;3.65;;;;;;;;;;4978721;28;20030;-69
2023/01/06 08:38:28;;;;;;;6.32;3.53;;;;;;;;;;4988328;28;20444;-70
2023/01/06 08:40:54;;;;;;;6.50;3.40;;;;;;;;;;4982740;28;20036;-68
2023/01/06 08:43:20;;;;;;;7.30;4.85;;;;;;;;;;4989131;28;20079;-69
2023/01/06 08:45:46;;;;;;;10.27;3.75;;;;;;;;;;4981479;28;20383;-68
2023/01/06 08:48:11;;;;;;;7.13;4.20;;;;;;;;;;5000096;28;20034;-69
2023/01/06 08:50:38;;;;;;;5.20;3.80;;;;;;;;;;5010593;28;20023;-70
2023/01/06 08:53:03;;;;;;;6.80;3.72;;;;;;;;;;4991638;28;20040;-69
2023/01/06 08:55:29;;;;;;;6.55;2.80;;;;;;;;;;4979067;28;20034;-69
2023/01/06 08:57:54;;;;;;;9.48;4.78;;;;;;;;;;4994632;28;20185;-69
2023/01/06 09:00:20;;;;;;;8.52;4.80;;;;;;;;;;4993353;28;20117;-70
2023/01/06 09:02:45;;;;;;;8.35;5.30;;;;;;;;;;4976717;28;20031;-70
2023/01/06 09:05:10;;;;;;;6.75;4.30;;;;;;;;;;4994488;28;20030;-70
2023/01/06 09:07:36;;;;;;;8.90;4.50;;;;;;;;;;4975647;28;20035;-70
2023/01/06 09:10:01;;;;;;;5.60;3.47;;;;;;;;;;4994065;28;20022;-70
2023/01/06 09:12:27;;;;;;;9.35;3.50;;;;;;;;;;4978009;28;20023;-70
2023/01/06 09:14:52;;;;;;;8.05;4.03;;;;;;;;;;4988627;28;20037;-70
2023/01/06 09:17:17;;;;;;;6.18;3.88;;;;;;;;;;4988785;28;20030;-70
2023/01/06 09:19:43;;;;;;;6.50;3.53;;;;;;;;;;4994431;28;20026;-69
2023/01/06 09:22:08;;;;;;;4.80;2.83;;;;;;;;;;4993428;28;20038;-69
2023/01/06 09:24:34;;;;;;;11.43;5.25;;;;;;;;;;4992150;28;20018;-69
2023/01/06 09:26:59;;;;;;;8.05;5.05;;;;;;;;;;4988080;28;20035;-70
2023/01/06 09:29:25;;;;;;;6.40;2.58;;;;;;;;;;4993892;28;20104;-69
2023/01/06 09:31:50;;;;;;;10.30;4.22;;;;;;;;;;4992191;28;20035;-69
2023/01/06 09:34:15;;;;;;;7.80;4.32;;;;;;;;;;4989879;28;20030;-68
2023/01/06 09:36:41;;;;;;;3.53;2.40;;;;;;;;;;4987650;28;20152;-69
2023/01/06 09:39:06;;;;;;;6.75;3.83;;;;;;;;;;4988065;28;20043;-68
2023/01/06 09:41:56;;;;;;;5.75;3.85;;;;;;;;;;4990572;28;20105;-70
2023/01/06 09:44:28;;;;;;;9.73;4.43;;;;;;;;;;4991802;28;20486;-69
2023/01/06 09:46:56;;;;;;;9.15;4.40;;;;;;;;;;4989749;28;20025;-70
2023/01/06 09:49:27;;;;;;;7.32;4.55;;;;;;;;;;4989951;28;20033;-70
2023/01/06 09:52:08;;;;;;;6.20;3.75;;;;;;;;;;4990147;28;20112;-70
2023/01/06 09:54:49;;;;;;;8.95;4.03;;;;;;;;;;4993683;28;20121;-68
2023/01/06 09:57:19;;;;;;;9.68;3.45;;;;;;;;;;4988262;28;20037;-69
2023/01/06 09:59:51;;;;;;;7.40;3.90;;;;;;;;;;4993142;28;20672;-68
2023/01/06 10:02:23;;;;;;;5.47;3.78;;;;;;;;;;4993804;28;20030;-69
2023/01/06 10:04:48;;;;;;;7.38;4.50;;;;;;;;;;5001864;28;20033;-69
2023/01/06 10:07:32;;;;;;;8.32;4.05;;;;;;;;;;4993113;28;20026;-69
2023/01/06 10:10:12;;;;;;;5.32;3.60;;;;;;;;;;4985693;28;20038;-69
2023/01/06 10:13:10;;;;;;;8.82;4.60;;;;;;;;;;4993447;28;20034;-68
2023/01/06 10:15:38;;;;;;;6.05;3.58;;;;;;;;;;4976999;28;20030;-70
2023/01/06 10:18:06;;;;;;;7.93;4.93;;;;;;;;;;4990770;28;20181;-70
2023/01/06 10:20:49;;;;;;;6.32;3.60;;;;;;;;;;4976087;28;20038;-70
2023/01/06 10:23:20;;;;;;;7.40;4.47;;;;;;;;;;4988571;28;20038;-69
2023/01/06 10:26:05;;;;;;;9.30;4.47;;;;;;;;;;4977944;28;20151;-70
2023/01/06 10:28:52;;;;;;;7.28;4.53;;;;;;;;;;4987075;28;20121;-68
2023/01/06 10:31:25;;;;;;;4.82;3.13;;;;;;;;;;4981955;28;20046;-70
2023/01/06 10:33:55;;;;;;;9.23;4.35;;;;;;;;;;4993116;28;20444;-70
2023/01/06 10:36:41;;;;;;;8.88;5.20;;;;;;;;;;4984271;28;20035;-70
2023/01/06 10:39:17;;;;;;;9.85;5.80;;;;;;;;;;4984279;28;20030;-70
2023/01/06 10:41:51;;;;;;;10.73;4.50;;;;;;;;;;5004636;28;20079;-70
2023/01/06 10:44:17;;;;;;;8.73;4.38;;;;;;;;;;5000582;28;20102;-70
2023/01/06 10:46:46;;;;;;;10.65;7.07;;;;;;;;;;4981499;28;20047;-69
2023/01/06 10:49:16;;;;;;;8.75;5.55;;;;;;;;;;4993423;28;20080;-69
2023/01/06 10:51:44;;;;;;;8.95;5.20;;;;;;;;;;4997936;28;20027;-69
2023/01/06 10:54:20;;;;;;;8.73;4.50;;;;;;;;;;4981639;28;20030;-69
2023/01/06 10:56:57;;;;;;;8.75;4.72;;;;;;;;;;4985474;28;20031;-72
2023/01/06 10:59:22;;;;;;;9.80;5.95;;;;;;;;;;5002437;28;20030;-68
2023/01/06 11:01:49;;;;;;;7.70;4.43;;;;;;;;;;4985636;28;20448;-69
2023/01/06 11:04:16;;;;;;;8.38;4.72;;;;;;;;;;4981643;28;20106;-69
2023/01/06 11:06:50;;;;;;;9.23;5.45;;;;;;;;;;4988184;28;20066;-69
2023/01/06 11:09:30;;;;;;;13.40;6.47;;;;;;;;;;4981393;28;20074;-69
2023/01/06 11:12:00;;;;;;;8.93;5.57;;;;;;;;;;4986356;28;20030;-69
2023/01/06 11:14:30;;;;;;;16.05;7.93;;;;;;;;;;4980208;28;20039;-75
2023/01/06 11:16:59;;;;;;;11.07;5.40;;;;;;;;;;4986378;28;20037;-72
2023/01/06 11:20:23;;;;;;;4.45;3.00;;;;;;;;;;5005687;28;20045;-69
2023/01/06 11:22:48;;;;;;;7.10;3.85;;;;;;;;;;4914084;29;20466;-70
2023/01/06 11:25:19;;;;;;;11.18;5.32;;;;;;;;;;4913956;29;20175;-71
2023/01/06 11:28:08;;;;;;;9.63;5.80;;;;;;;;;;4892779;29;20044;-70
2023/01/06 11:31:03;;;;;;;10.38;4.97;;;;;;;;;;4913862;29;20469;-71
2023/01/06 11:33:31;;;;;;;10.15;5.13;;;;;;;;;;4907264;29;20053;-70
2023/01/06 11:35:58;;;;;;;8.98;5.15;;;;;;;;;;4902995;29;20495;-71
2023/01/06 11:38:23;;;;;;;13.80;5.85;;;;;;;;;;4917699;29;20052;-70
2023/01/06 11:40:52;;;;;;;8.52;5.30;;;;;;;;;;4918153;29;20036;-71
2023/01/06 11:43:31;;;;;;;14.93;6.88;;;;;;;;;;4919430;29;20118;-71
2023/01/06 11:46:01;;;;;;;12.30;6.63;;;;;;;;;;4919477;29;20036;-69
2023/01/06 11:48:31;;;;;;;13.30;7.85;;;;;;;;;;4921974;29;20138;-71
2023/01/06 11:50:59;;;;;;;14.43;7.27;;;;;;;;;;4925829;29;20077;-71
2023/01/06 11:53:25;;;;;;;14.45;7.82;;;;;;;;;;4930952;29;20287;-69
2023/01/06 11:56:01;;;;;;;17.27;8.23;;;;;;;;;;4934609;29;20036;-71
2023/01/06 11:58:52;;;;;;;13.70;8.45;;;;;;;;;;4967131;28;20044;-71
2023/01/06 12:01:20;;;;;;;19.52;8.38;;;;;;;;;;5001013;28;20030;-71
2023/01/06 12:03:50;;;;;;;14.80;7.95;;;;;;;;;;4990770;28;20514;-70
2023/01/06 12:06:15;;;;;;;17.80;9.37;;;;;;;;;;4985373;28;20097;-71
2023/01/06 12:09:02;;;;;;;17.05;8.52;;;;;;;;;;5007934;28;20132;-69
2023/01/06 12:11:45;;;;;;;14.45;7.60;;;;;;;;;;5001039;28;20030;-71
2023/01/06 12:14:35;;;;;;;14.88;7.82;;;;;;;;;;5008200;28;20435;-71
2023/01/06 12:17:29;;;;;;;14.77;8.60;;;;;;;;;;5012038;28;20037;-69
2023/01/06 12:20:00;;;;;;;15.13;8.30;;;;;;;;;;4998560;28;20042;-71
2023/01/06 12:22:40;;;;;;;15.35;8.70;;;;;;;;;;5004250;28;20375;-70
2023/01/06 12:25:12;;;;;;;;;;;;;;;;;;5008910;28;20470;-68
2023/01/06 12:27:55;;;;;;;9.45;6.40;;;;;;;;;;5012482;28;20347;-69
2023/01/06 12:30:32;;;;;;;11.75;6.95;;;;;;;;;;4999438;28;20358;-69
2023/01/06 12:33:08;;;;;;;10.63;5.68;;;;;;;;;;4995066;28;20042;-69
2023/01/06 12:35:38;;;;;;;11.43;6.30;;;;;;;;;;4996411;28;20078;-69
2023/01/06 12:38:16;;;;;;;10.50;7.25;;;;;;;;;;4995872;28;20113;-69
2023/01/06 12:40:50;;;;;;;8.75;6.40;;;;;;;;;;5000778;28;20033;-69
2023/01/06 12:43:22;;;;;;;10.88;4.85;;;;;;;;;;5004842;28;20022;-69
2023/01/06 12:46:02;;;;;;;14.32;7.03;;;;;;;;;;5006904;28;20119;-69
2023/01/06 12:48:30;;;;;;;;;;;;;;;;;;5007797;28;20073;-69
2023/01/06 12:51:07;;;;;;;9.95;5.55;;;;;;;;;;5000936;28;19945;-70
2023/01/06 12:54:03;;;;;;;11.13;6.10;;;;;;;;;;5004980;28;20105;-70
2023/01/06 12:56:38;;;;;;;11.18;7.03;;;;;;;;;;4987189;28;20458;-70
2023/01/06 12:59:17;;;;;;;10.27;4.82;;;;;;;;;;5005263;28;20490;-70
2023/01/06 13:01:49;;;;;;;11.77;7.22;;;;;;;;;;4999941;28;20108;-69
2023/01/06 13:04:35;;;;;;;12.70;7.47;;;;;;;;;;5003986;28;20137;-69
2023/01/06 13:07:10;;;;;;;12.40;6.55;;;;;;;;;;5002143;28;20050;-70
2023/01/06 13:09:50;;;;;;;12.82;7.60;;;;;;;;;;4982288;28;20049;-68
2023/01/06 13:12:34;;;;;;;14.30;7.82;;;;;;;;;;5003137;28;20030;-69
2023/01/06 13:15:15;;;;;;;10.88;7.22;;;;;;;;;;5005373;28;20034;-70
2023/01/06 13:18:08;;;;;;;12.65;7.85;;;;;;;;;;5002551;28;20049;-70
2023/01/06 13:20:39;;;;;;;14.55;8.32;;;;;;;;;;5000419;28;20030;-69
2023/01/06 13:23:15;;;;;;;11.80;7.55;;;;;;;;;;4975259;28;20046;-68
2023/01/06 13:25:53;;;;;;;14.98;9.05;;;;;;;;;;4993709;28;20463;-69
2023/01/06 13:28:58;;;;;;;15.23;8.90;;;;;;;;;;4976869;28;20392;-69
2023/01/06 13:31:42;;;;;;;15.27;9.30;;;;;;;;;;4987589;28;20035;-69
2023/01/06 13:34:47;;;;;;;15.70;8.85;;;;;;;;;;4983306;28;20373;-70
2023/01/06 13:37:50;;;;;;;11.80;6.82;;;;;;;;;;4981348;28;20539;-70
2023/01/06 13:40:18;;;;;;;15.00;8.32;;;;;;;;;;4992317;28;20471;-69
2023/01/06 13:42:57;;;;;;;15.57;8.50;;;;;;;;;;4983457;28;20484;-67
2023/01/06 13:45:46;;;;;;;20.80;10.27;;;;;;;;;;4991195;28;20030;-67
2023/01/06 13:48:18;;;;;;;15.88;9.40;;;;;;;;;;4988077;28;20033;-66
2023/01/06 13:50:44;;;;;;;13.82;9.05;;;;;;;;;;4990877;28;20069;-68
2023/01/06 13:53:17;;;;;;;20.17;10.68;;;;;;;;;;4991500;28;20112;-67
2023/01/06 13:55:42;;;;;;;23.60;11.65;;;;;;;;;;4991116;28;20475;-68
2023/01/06 13:58:23;;;;;;;21.20;11.38;;;;;;;;;;4987045;28;20033;-68
2023/01/06 14:01:29;;;;;;;20.85;12.23;;;;;;;;;;4990775;28;20033;-69
2023/01/06 14:04:30;;;;;;;18.55;10.30;;;;;;;;;;4990925;28;20026;-69
2023/01/06 14:06:55;;;;;;;16.83;10.73;;;;;;;;;;4990741;28;20065;-67
2023/01/06 14:09:21;;;;;;;23.67;12.73;;;;;;;;;;4990787;28;20468;-68
2023/01/06 14:11:47;;;;;;;20.50;12.35;;;;;;;;;;4990482;28;20046;-68
2023/01/06 14:14:23;;;;;;;21.70;12.63;;;;;;;;;;4990860;28;20095;-69
2023/01/06 14:16:50;;;;;;;18.30;9.20;;;;;;;;;;4990547;28;20034;-69
2023/01/06 14:19:29;;;;;;;17.67;11.40;;;;;;;;;;4992432;28;20066;-68
2023/01/06 14:22:19;;;;;;;16.25;10.57;;;;;;;;;;4990495;28;20027;-68
2023/01/06 14:24:57;;;;;;;18.13;11.23;;;;;;;;;;4987178;28;20026;-68
2023/01/06 14:27:57;;;;;;;18.02;11.20;;;;;;;;;;4988927;28;20579;-67
2023/01/06 14:30:27;;;;;;;15.10;10.38;;;;;;;;;;4954449;28;20482;-71
2023/01/06 14:32:58;;;;;;;17.65;10.30;;;;;;;;;;4962280;28;20141;-70
2023/01/06 14:35:43;;;;;;;22.10;11.20;;;;;;;;;;4953655;28;20035;-68
2023/01/06 14:38:33;;;;;;;17.77;11.38;;;;;;;;;;4970983;28;20117;-73
2023/01/06 14:41:03;;;;;;;18.55;12.20;;;;;;;;;;4965511;28;20094;-76
2023/01/06 14:43:46;;;;;;;17.80;11.43;;;;;;;;;;4958106;28;20488;-72
2023/01/06 14:46:18;;;;;;;18.13;9.82;;;;;;;;;;4954929;28;20027;-69
2023/01/06 14:48:49;;;;;;;14.30;9.77;;;;;;;;;;4971244;28;20115;-74
2023/01/06 14:51:18;;;;;;;15.63;10.20;;;;;;;;;;4952890;28;20043;-73
2023/01/06 14:53:56;;;;;;;16.35;9.73;;;;;;;;;;4960956;28;20031;-68
2023/01/06 14:56:24;;;;;;;14.50;9.85;;;;;;;;;;4965352;28;20057;-65
2023/01/06 14:58:49;;;;;;;17.83;9.13;;;;;;;;;;4961953;28;20074;-69
2023/01/06 15:01:33;;;;;;;13.85;8.65;;;;;;;;;;4959558;28;20137;-71
2023/01/06 15:04:01;;;;;;;12.38;8.25;;;;;;;;;;4976290;28;20495;-76
2023/01/06 15:06:27;;;;;;;13.90;7.85;;;;;;;;;;4988798;28;20380;-75